createdAt,value
2022-11-17T00:01:37.321Z,3.3
2022-11-17T00:04:17.958Z,3.4
2022-11-17T00:09:18.670Z,3.4
2022-11-17T00:11:49.284Z,3.4
2022-11-17T00:14:19.845Z,3.5
2022-11-17T00:16:50.441Z,3.5
2022-11-17T00:19:31.037Z,3.5
2022-11-17T00:22:01.644Z,3.5
2022-11-17T00:24:32.230Z,3.5
2022-11-17T00:27:12.832Z,3.5
2022-11-17T00:29:43.457Z,3.5
2022-11-17T00:32:24.066Z,3.6
2022-11-17T00:34:54.647Z,3.6
2022-11-17T00:37:25.228Z,3.6
2022-11-17T00:40:00.467Z,3.6
2022-11-17T00:42:21.329Z,3.5
2022-11-17T00:44:51.954Z,3.5
2022-11-17T00:50:02.719Z,3.5
2022-11-17T00:52:33.317Z,3.5
2022-11-17T00:55:03.960Z,3.5
2022-11-17T00:57:34.816Z,3.5
2022-11-17T01:00:05.409Z,3.5
2022-11-17T01:02:46.024Z,3.5
2022-11-17T01:05:16.632Z,3.5
2022-11-17T01:07:52.226Z,3.5
2022-11-17T01:10:22.782Z,3.5
2022-11-17T01:12:53.350Z,3.5
2022-11-17T01:15:23.950Z,3.4
2022-11-17T01:18:04.557Z,3.4
2022-11-17T01:20:35.242Z,3.5
2022-11-17T01:23:05.847Z,3.5
2022-11-17T01:25:36.435Z,3.5
2022-11-17T01:30:37.229Z,3.4
2022-11-17T01:33:17.858Z,3.5
2022-11-17T01:35:48.611Z,3.4
2022-11-17T01:38:19.218Z,3.4
2022-11-17T01:40:49.823Z,3.4
2022-11-17T01:43:20.420Z,3.3
2022-11-17T01:46:01.040Z,3.3
2022-11-17T01:48:31.643Z,3.3
2022-11-17T01:51:02.275Z,3.3
2022-11-17T01:53:33.144Z,3.3
2022-11-17T01:56:03.895Z,3.3
2022-11-17T01:58:34.467Z,3.3
2022-11-17T02:01:15.105Z,3.3
2022-11-17T02:03:45.912Z,3.3
2022-11-17T02:06:16.532Z,3.2
2022-11-17T02:11:17.411Z,3.3
2022-11-17T02:13:47.996Z,3.3
2022-11-17T02:16:28.623Z,3.3
2022-11-17T02:18:59.236Z,3.3
2022-11-17T02:21:29.846Z,3.3
2022-11-17T02:24:00.428Z,3.3
2022-11-17T02:26:31.026Z,3.3
2022-11-17T02:29:01.632Z,3.3
2022-11-17T02:31:42.248Z,3.3
2022-11-17T02:34:12.838Z,3.3
2022-11-17T02:36:43.438Z,3.3
2022-11-17T02:39:14.020Z,3.3
2022-11-17T02:41:44.622Z,3.2
2022-11-17T02:44:25.242Z,3.3
2022-11-17T02:47:05.831Z,3.2
2022-11-17T02:52:06.570Z,3.2
2022-11-17T02:54:37.196Z,3.2
2022-11-17T02:57:07.799Z,3.2
2022-11-17T02:59:38.388Z,3.2
2022-11-17T03:02:18.986Z,3.3
2022-11-17T03:04:49.577Z,3.3
2022-11-17T03:07:20.232Z,3.3
2022-11-17T03:09:50.925Z,3.3
2022-11-17T03:12:21.507Z,3.3
2022-11-17T03:14:52.132Z,3.3
2022-11-17T03:17:32.778Z,3.3
2022-11-17T03:20:03.378Z,3.3
2022-11-17T03:22:33.984Z,3.3
2022-11-17T03:25:04.569Z,3.3
2022-11-17T03:27:35.194Z,3.3
2022-11-17T03:32:45.959Z,3.3
2022-11-17T03:35:16.567Z,3.3
2022-11-17T03:37:47.187Z,3.3
2022-11-17T03:40:17.831Z,3.4
2022-11-17T03:42:48.445Z,3.3
2022-11-17T03:45:29.065Z,3.3
2022-11-17T03:47:59.686Z,3.3
2022-11-17T03:50:30.293Z,3.3
2022-11-17T03:53:00.900Z,3.3
2022-11-17T03:55:31.511Z,3.3
2022-11-17T03:58:02.105Z,3.3
2022-11-17T04:00:42.700Z,3.3
2022-11-17T04:03:13.315Z,3.3
2022-11-17T04:05:44.548Z,3.2
2022-11-17T04:08:15.169Z,3.2
2022-11-17T04:13:25.921Z,3.2
2022-11-17T04:15:56.845Z,3.2
2022-11-17T04:18:27.618Z,3.2
2022-11-17T04:20:58.247Z,3.3
2022-11-17T04:23:29.014Z,3.2
2022-11-17T04:25:59.619Z,3.2
2022-11-17T04:28:40.255Z,3.2
2022-11-17T04:31:10.873Z,3.2
2022-11-17T04:33:41.497Z,3.2
2022-11-17T04:36:12.096Z,3.2
2022-11-17T04:38:42.702Z,3.2
2022-11-17T04:41:13.316Z,3.2
2022-11-17T04:43:53.931Z,3.2
2022-11-17T04:46:24.520Z,3.1
2022-11-17T04:48:55.144Z,3.1
2022-11-17T04:53:55.922Z,3.1
2022-11-17T04:56:26.527Z,3.1
2022-11-17T04:59:07.151Z,3.1
2022-11-17T05:01:37.751Z,3.1
2022-11-17T05:04:12.915Z,3.1
2022-11-17T05:06:43.498Z,3.1
2022-11-17T05:09:14.254Z,3.1
2022-11-17T05:11:44.854Z,3.1
2022-11-17T05:14:25.461Z,3.1
2022-11-17T05:16:56.076Z,3.1
2022-11-17T05:19:29.990Z,3.1
2022-11-17T05:22:00.640Z,3.1
2022-11-17T05:24:31.298Z,3.1
2022-11-17T05:27:11.919Z,3.1
2022-11-17T05:29:42.530Z,3.1
2022-11-17T05:34:43.279Z,3.1
2022-11-17T05:37:13.878Z,3.1
2022-11-17T05:39:44.498Z,3.1
2022-11-17T05:42:25.145Z,3.2
2022-11-17T05:44:55.748Z,3.1
2022-11-17T05:47:26.326Z,3.2
2022-11-17T05:49:56.942Z,3.2
2022-11-17T05:52:27.541Z,3.2
2022-11-17T05:54:58.174Z,3.2
2022-11-17T05:57:38.801Z,3.2
2022-11-17T06:00:09.400Z,3.2
2022-11-17T06:02:39.982Z,3.2
2022-11-17T06:05:13.306Z,3.2
2022-11-17T06:07:46.245Z,3.2
2022-11-17T06:10:16.827Z,3.1
2022-11-17T06:15:27.582Z,3.1
2022-11-17T06:17:58.183Z,3.1
2022-11-17T06:20:28.810Z,3.1
2022-11-17T06:22:59.385Z,3.1
2022-11-17T06:25:29.985Z,3.1
2022-11-17T06:28:10.606Z,3.1
2022-11-17T06:30:41.232Z,3.1
2022-11-17T06:33:11.850Z,3.0
2022-11-17T06:35:42.558Z,2.9
2022-11-17T06:38:13.143Z,2.9
2022-11-17T06:40:43.752Z,3.0
2022-11-17T06:43:19.178Z,3.0
2022-11-17T06:45:49.782Z,3.1
2022-11-17T06:48:20.382Z,3.0
2022-11-17T06:50:50.991Z,3.0
2022-11-17T06:56:11.763Z,3.0
2022-11-17T06:58:42.352Z,3.0
2022-11-17T07:01:12.999Z,2.9
2022-11-17T07:03:43.743Z,3.0
2022-11-17T07:06:14.345Z,3.0
2022-11-17T07:08:44.957Z,3.0
2022-11-17T07:11:25.586Z,2.9
2022-11-17T07:13:56.174Z,2.9
2022-11-17T07:16:26.795Z,3.0
2022-11-17T07:18:57.427Z,3.0
2022-11-17T07:21:28.037Z,2.9
2022-11-17T07:23:58.627Z,2.9
2022-11-17T07:26:39.250Z,2.9
2022-11-17T07:29:09.870Z,3.0
2022-11-17T07:31:40.480Z,3.1
2022-11-17T07:36:41.240Z,3.0
2022-11-17T07:39:11.830Z,3.0
2022-11-17T07:41:52.697Z,3.0
2022-11-17T07:44:23.303Z,3.1
2022-11-17T07:46:53.886Z,3.1
2022-11-17T07:49:24.477Z,3.1
2022-11-17T07:51:55.082Z,3.1
2022-11-17T07:54:25.781Z,3.1
2022-11-17T07:57:06.411Z,3.1
2022-11-17T07:59:37.019Z,3.1
2022-11-17T08:02:07.622Z,3.0
2022-11-17T08:04:38.219Z,3.1
2022-11-17T08:07:08.863Z,3.1
2022-11-17T08:09:49.750Z,3.1
2022-11-17T08:12:20.356Z,3.1
2022-11-17T08:17:21.113Z,3.1
2022-11-17T08:19:51.728Z,3.2
2022-11-17T08:22:22.324Z,3.2
2022-11-17T08:25:02.933Z,3.2
2022-11-17T08:27:33.518Z,3.2
2022-11-17T08:30:04.134Z,3.4
2022-11-17T08:32:34.755Z,3.4
2022-11-17T08:35:05.342Z,3.4
2022-11-17T08:37:35.960Z,3.5
2022-11-17T08:40:16.591Z,3.5
2022-11-17T08:42:47.185Z,3.6
2022-11-17T08:45:21.435Z,3.7
2022-11-17T08:47:52.032Z,3.6
2022-11-17T08:50:22.628Z,3.7
2022-11-17T08:52:53.251Z,3.7
2022-11-17T08:58:04.010Z,3.7
2022-11-17T09:00:34.628Z,3.7
2022-11-17T09:03:06.431Z,3.8
2022-11-17T09:05:37.031Z,3.8
2022-11-17T09:08:30.070Z,3.7
2022-11-17T09:10:44.777Z,3.8
2022-11-17T09:13:18.558Z,3.7
2022-11-17T09:15:49.390Z,3.8
2022-11-17T09:18:20.058Z,3.9
2022-11-17T09:20:50.991Z,4.0
2022-11-17T09:23:31.626Z,4.0
2022-11-17T09:26:02.255Z,4.1
2022-11-17T09:28:33.078Z,4.1
2022-11-17T09:31:03.917Z,4.2
2022-11-17T09:33:34.776Z,4.3
2022-11-17T09:38:47.067Z,4.4
2022-11-17T09:41:17.686Z,4.4
2022-11-17T09:43:48.299Z,4.4
2022-11-17T09:46:18.913Z,4.3
2022-11-17T09:48:49.512Z,4.1
2022-11-17T09:51:20.118Z,4.3
2022-11-17T09:54:00.715Z,4.3
2022-11-17T09:56:31.319Z,4.3
2022-11-17T09:59:01.941Z,4.3
2022-11-17T10:01:32.545Z,4.3
2022-11-17T10:04:03.217Z,4.3
2022-11-17T10:06:43.848Z,4.3
2022-11-17T10:09:14.634Z,4.3
2022-11-17T10:11:46.642Z,4.2
2022-11-17T10:14:17.271Z,4.3
2022-11-17T10:19:18.023Z,4.3
2022-11-17T10:21:58.658Z,4.3
2022-11-17T10:24:31.179Z,4.3
2022-11-17T10:27:01.787Z,4.3
2022-11-17T10:29:32.404Z,4.3
2022-11-17T10:32:03.034Z,4.4
2022-11-17T10:34:39.083Z,4.5
2022-11-17T10:37:10.910Z,4.4
2022-11-17T10:39:41.491Z,4.4
2022-11-17T10:42:12.141Z,4.4
2022-11-17T10:44:42.752Z,4.4
2022-11-17T10:47:13.389Z,4.5
2022-11-17T10:49:54.028Z,4.6
2022-11-17T10:52:24.688Z,4.6
2022-11-17T10:54:55.295Z,4.7
2022-11-17T10:59:57.211Z,4.8
2022-11-17T11:02:27.926Z,4.8
2022-11-17T11:05:08.533Z,4.8
2022-11-17T11:07:39.384Z,4.9
2022-11-17T11:10:10.028Z,4.9
2022-11-17T11:12:40.605Z,4.9
2022-11-17T11:15:11.203Z,4.9
2022-11-17T11:17:41.805Z,4.8
2022-11-17T11:20:22.420Z,4.9
2022-11-17T11:22:53.024Z,5.1
2022-11-17T11:25:23.618Z,5.2
2022-11-17T11:28:04.212Z,5.2
2022-11-17T11:30:34.832Z,5.2
2022-11-17T11:33:05.428Z,5.2
2022-11-17T11:35:46.027Z,5.2
2022-11-17T11:40:46.792Z,5.2
2022-11-17T11:43:17.392Z,5.2
2022-11-17T11:45:48.124Z,5.3
2022-11-17T11:48:28.792Z,5.4
2022-11-17T11:50:59.459Z,5.3
2022-11-17T11:53:30.059Z,5.3
2022-11-17T11:56:00.691Z,5.3
2022-11-17T11:58:31.302Z,5.3
2022-11-17T12:01:01.889Z,5.3
2022-11-17T12:03:42.512Z,5.4
2022-11-17T12:06:13.223Z,5.4
2022-11-17T12:08:43.897Z,5.4
2022-11-17T12:11:14.524Z,5.5
2022-11-17T12:13:47.343Z,5.6
2022-11-17T12:16:10.787Z,5.6
2022-11-17T12:21:21.580Z,5.7
2022-11-17T12:23:52.169Z,5.8
2022-11-17T12:26:23.341Z,5.8
2022-11-17T12:28:53.936Z,5.9
2022-11-17T12:31:24.546Z,6.0
2022-11-17T12:34:05.199Z,5.9
2022-11-17T12:36:35.797Z,5.9
2022-11-17T12:39:06.385Z,5.9
2022-11-17T12:41:37.010Z,5.9
2022-11-17T12:44:07.643Z,5.9
2022-11-17T12:46:48.261Z,6.0
2022-11-17T12:49:28.848Z,6.1
2022-11-17T12:51:59.450Z,6.1
2022-11-17T12:54:30.060Z,6.1
2022-11-17T12:57:00.678Z,6.2
2022-11-17T13:02:11.428Z,6.4
2022-11-17T13:04:46.435Z,6.7
2022-11-17T13:07:08.657Z,6.9
2022-11-17T13:09:39.816Z,7.0
2022-11-17T13:12:10.405Z,7.0
2022-11-17T13:14:41.003Z,7.0
2022-11-17T13:17:21.677Z,7.0
2022-11-17T13:19:52.517Z,7.1
2022-11-17T13:22:23.117Z,7.1
2022-11-17T13:24:59.460Z,7.0
2022-11-17T13:27:30.050Z,7.1
2022-11-17T13:29:57.410Z,7.2
2022-11-17T13:32:38.147Z,7.3
2022-11-17T13:35:08.752Z,7.3
2022-11-17T13:37:39.346Z,7.3
2022-11-17T13:42:40.087Z,7.5
2022-11-17T13:45:20.724Z,7.5
2022-11-17T13:47:51.360Z,7.5
2022-11-17T13:50:21.957Z,7.5
2022-11-17T13:52:52.550Z,7.6
2022-11-17T13:55:23.157Z,7.6
2022-11-17T13:57:53.763Z,7.6
2022-11-17T14:00:30.787Z,7.6
2022-11-17T14:03:01.378Z,7.7
2022-11-17T14:05:32.002Z,7.8
2022-11-17T14:08:12.597Z,7.8
2022-11-17T14:10:43.218Z,7.8
2022-11-17T14:13:13.790Z,8.0
2022-11-17T14:15:54.406Z,8.0
2022-11-17T14:18:25.213Z,7.9
2022-11-17T14:23:25.964Z,7.9
2022-11-17T14:25:56.558Z,8.0
2022-11-17T14:28:27.150Z,8.1
2022-11-17T14:31:07.771Z,8.1
2022-11-17T14:33:38.375Z,8.2
2022-11-17T14:36:08.978Z,8.4
2022-11-17T14:38:39.571Z,8.4
2022-11-17T14:41:10.231Z,8.5
2022-11-17T14:43:40.825Z,8.3
2022-11-17T14:46:21.462Z,8.2
2022-11-17T14:48:52.084Z,8.0
2022-11-17T14:51:23.364Z,7.9
2022-11-17T14:53:53.976Z,7.6
2022-11-17T14:56:24.627Z,7.4
2022-11-17T14:58:55.278Z,7.2
2022-11-17T15:04:21.037Z,6.8
2022-11-17T15:06:31.890Z,6.6
2022-11-17T15:09:02.582Z,6.4
2022-11-17T15:11:39.223Z,6.2
2022-11-17T15:14:20.183Z,6.1
2022-11-17T15:16:50.777Z,6.0
2022-11-17T15:19:14.685Z,5.9
2022-11-17T15:21:55.301Z,5.7
2022-11-17T15:24:25.896Z,5.6
2022-11-17T15:26:56.508Z,5.6
2022-11-17T15:29:37.122Z,5.5
2022-11-17T15:32:07.740Z,5.4
2022-11-17T15:34:38.398Z,5.3
2022-11-17T15:37:08.991Z,5.2
2022-11-17T15:39:39.583Z,5.1
2022-11-17T15:44:50.335Z,4.8
2022-11-17T15:47:20.941Z,4.7
2022-11-17T15:49:51.528Z,4.7
2022-11-17T15:52:35.593Z,4.4
2022-11-17T15:54:54.542Z,4.3
2022-11-17T15:57:25.164Z,4.3
2022-11-17T16:00:05.789Z,4.1
2022-11-17T16:02:36.343Z,4.3
2022-11-17T16:04:59.109Z,4.4
2022-11-17T16:07:29.779Z,4.4
2022-11-17T16:10:00.801Z,4.3
2022-11-17T16:12:41.408Z,4.2
2022-11-17T16:15:12.012Z,4.2
2022-11-17T16:17:42.621Z,4.1
2022-11-17T16:20:23.269Z,4.0
2022-11-17T16:25:24.186Z,4.2
2022-11-17T16:28:04.794Z,4.2
2022-11-17T16:30:35.776Z,4.1
2022-11-17T16:33:06.439Z,3.9
2022-11-17T16:35:37.061Z,3.8
2022-11-17T16:38:07.655Z,3.7
2022-11-17T16:40:38.321Z,3.6
2022-11-17T16:43:18.927Z,3.5
2022-11-17T16:45:44.861Z,3.4
2022-11-17T16:48:15.489Z,3.3
2022-11-17T16:50:46.134Z,3.3
2022-11-17T16:53:16.738Z,3.3
2022-11-17T16:55:47.421Z,3.3
2022-11-17T16:58:28.031Z,3.2
2022-11-17T17:00:58.652Z,3.1
2022-11-17T17:06:03.054Z,3.1
2022-11-17T17:08:33.654Z,3.1
2022-11-17T17:11:04.251Z,3.1
2022-11-17T17:13:44.855Z,3.1
2022-11-17T17:16:15.440Z,3.1
2022-11-17T17:18:46.160Z,3.1
2022-11-17T17:21:16.788Z,3.2
2022-11-17T17:23:47.392Z,3.1
2022-11-17T17:26:27.995Z,3.2
2022-11-17T17:28:58.590Z,3.2
2022-11-17T17:31:29.639Z,3.1
2022-11-17T17:34:00.241Z,3.3
2022-11-17T17:36:30.835Z,3.5
2022-11-17T17:39:01.453Z,3.5
2022-11-17T17:41:42.078Z,3.6
2022-11-17T17:46:42.835Z,3.5
2022-11-17T17:49:13.693Z,3.5
2022-11-17T17:51:44.562Z,3.5
2022-11-17T17:54:19.992Z,3.6
2022-11-17T17:57:00.650Z,3.6
2022-11-17T17:59:31.259Z,3.6
2022-11-17T18:02:01.848Z,3.6
2022-11-17T18:04:32.443Z,3.7
2022-11-17T18:07:03.136Z,3.7
2022-11-17T18:09:33.900Z,3.8
2022-11-17T18:12:14.555Z,3.8
2022-11-17T18:14:45.140Z,3.8
2022-11-17T18:17:15.743Z,3.7
2022-11-17T18:19:46.342Z,3.6
2022-11-17T18:22:16.981Z,3.5
2022-11-17T18:27:27.741Z,3.7
2022-11-17T18:29:58.336Z,3.7
2022-11-17T18:32:28.925Z,3.7
2022-11-17T18:34:59.549Z,3.7
2022-11-17T18:37:30.139Z,3.7
2022-11-17T18:40:10.750Z,3.7
2022-11-17T18:42:41.368Z,3.7
2022-11-17T18:45:12.004Z,3.7
2022-11-17T18:47:42.602Z,3.7
2022-11-17T18:50:13.205Z,3.7
2022-11-17T18:52:43.790Z,3.7
2022-11-17T18:55:24.406Z,3.7
2022-11-17T18:57:55.010Z,3.7
2022-11-17T19:00:25.607Z,3.7
2022-11-17T19:02:56.231Z,3.7
2022-11-17T19:07:56.968Z,3.7
2022-11-17T19:10:37.585Z,3.7
2022-11-17T19:13:13.514Z,3.8
2022-11-17T19:15:44.122Z,3.7
2022-11-17T19:18:14.726Z,3.8
2022-11-17T19:20:45.358Z,3.9
2022-11-17T19:23:15.976Z,3.9
2022-11-17T19:25:56.611Z,3.9
2022-11-17T19:28:27.200Z,3.9
2022-11-17T19:30:57.811Z,4.1
2022-11-17T19:33:28.416Z,4.1
2022-11-17T19:35:59.015Z,4.3
2022-11-17T19:38:29.619Z,4.3
2022-11-17T19:41:10.362Z,4.4
2022-11-17T19:43:45.037Z,4.6
2022-11-17T19:48:46.108Z,4.7
2022-11-17T19:51:16.728Z,4.8
2022-11-17T19:53:57.533Z,4.8
2022-11-17T19:56:28.152Z,4.9
2022-11-17T19:58:58.879Z,4.9
2022-11-17T20:01:26.159Z,5.2
2022-11-17T20:03:57.078Z,5.2
2022-11-17T20:06:27.714Z,5.2
2022-11-17T20:09:08.325Z,5.2
2022-11-17T20:11:39.391Z,5.2
2022-11-17T20:14:10.018Z,5.2
2022-11-17T20:16:40.633Z,5.2
2022-11-17T20:19:11.251Z,5.2
2022-11-17T20:21:41.896Z,5.2
2022-11-17T20:24:22.484Z,5.2
2022-11-17T20:29:23.229Z,5.2
2022-11-17T20:31:53.882Z,5.2
2022-11-17T20:34:24.478Z,5.1
2022-11-17T20:36:55.076Z,5.1
2022-11-17T20:39:35.664Z,5.1
2022-11-17T20:42:06.289Z,5.1
2022-11-17T20:44:36.905Z,5.1
2022-11-17T20:47:07.528Z,4.9
2022-11-17T20:49:38.127Z,4.9
2022-11-17T20:52:13.136Z,4.9
2022-11-17T20:54:53.969Z,4.9
2022-11-17T20:57:24.607Z,4.9
2022-11-17T20:59:55.224Z,4.9
2022-11-17T21:02:25.813Z,4.9
2022-11-17T21:04:56.414Z,4.9
2022-11-17T21:10:07.624Z,4.9
2022-11-17T21:12:38.206Z,4.9
2022-11-17T21:15:08.793Z,4.9
2022-11-17T21:17:39.428Z,4.9
2022-11-17T21:20:10.179Z,4.9
2022-11-17T21:22:50.792Z,4.9
2022-11-17T21:25:21.390Z,4.8
2022-11-17T21:27:52.012Z,4.8
2022-11-17T21:30:22.595Z,4.8
2022-11-17T21:32:53.211Z,4.8
2022-11-17T21:35:23.872Z,4.8
2022-11-17T21:38:04.477Z,4.8
2022-11-17T21:40:35.066Z,4.8
2022-11-17T21:43:05.665Z,4.8
2022-11-17T21:45:36.291Z,4.8
2022-11-17T21:50:37.050Z,4.9
2022-11-17T21:53:17.618Z,4.9
2022-11-17T21:55:48.248Z,4.9
2022-11-17T21:58:18.859Z,4.9
2022-11-17T22:00:49.526Z,4.8
2022-11-17T22:03:20.246Z,4.8
2022-11-17T22:06:02.391Z,4.8
2022-11-17T22:08:33.169Z,4.8
2022-11-17T22:11:03.785Z,4.9
2022-11-17T22:13:34.399Z,4.9
2022-11-17T22:16:05.006Z,4.9
2022-11-17T22:18:35.588Z,4.9
2022-11-17T22:21:16.209Z,5.1
2022-11-17T22:23:46.843Z,4.9
2022-11-17T22:26:17.448Z,5.1
2022-11-17T22:31:18.201Z,4.9
2022-11-17T22:33:48.811Z,4.9
2022-11-17T22:36:29.460Z,4.9
2022-11-17T22:39:00.040Z,4.8
2022-11-17T22:41:30.785Z,4.8
2022-11-17T22:44:01.387Z,4.8
2022-11-17T22:46:32.006Z,4.7
2022-11-17T22:49:02.587Z,4.7
2022-11-17T22:51:43.205Z,4.7
2022-11-17T22:54:13.782Z,4.7
2022-11-17T22:56:54.549Z,4.7
2022-11-17T22:59:25.159Z,4.7
2022-11-17T23:01:55.759Z,4.6
2022-11-17T23:04:26.359Z,4.6
2022-11-17T23:07:06.999Z,4.6
2022-11-17T23:12:08.033Z,4.6
2022-11-17T23:17:08.775Z,4.5
2022-11-17T23:19:39.363Z,4.5
2022-11-17T23:22:19.962Z,4.5
2022-11-17T23:24:50.565Z,4.5
2022-11-17T23:27:21.163Z,4.5
2022-11-17T23:29:51.778Z,4.5
2022-11-17T23:32:22.393Z,4.5
2022-11-17T23:37:33.138Z,4.5
2022-11-17T23:40:03.739Z,4.5
2022-11-17T23:42:37.468Z,4.6
2022-11-17T23:45:00.689Z,4.5
2022-11-17T23:47:31.289Z,4.5
2022-11-17T23:52:42.060Z,4.4
2022-11-17T23:55:12.641Z,4.4
2022-11-17T23:57:53.253Z,4.3
